sensor_id;sensor_type;location;lat;lon;timestamp;P1;durP1;ratioP1;P2;durP2;ratioP2
18732;SDS011;9495;51.210;2.934;2022-07-23T00:01:55;7.75;;;4.70;;
18732;SDS011;9495;51.210;2.934;2022-07-23T00:04:23;9.05;;;4.78;;
18732;SDS011;9495;51.210;2.934;2022-07-23T00:06:52;11.48;;;5.15;;
18732;SDS011;9495;51.210;2.934;2022-07-23T00:09:22;6.40;;;4.97;;
18732;SDS011;9495;51.210;2.934;2022-07-23T00:11:50;9.48;;;5.03;;
18732;SDS011;9495;51.210;2.934;2022-07-23T00:14:19;10.30;;;5.03;;
18732;SDS011;9495;51.210;2.934;2022-07-23T00:16:47;7.15;;;5.03;;
18732;SDS011;9495;51.210;2.934;2022-07-23T00:19:15;8.35;;;5.03;;
18732;SDS011;9495;51.210;2.934;2022-07-23T00:21:44;9.35;;;5.38;;
18732;SDS011;9495;51.210;2.934;2022-07-23T00:24:12;10.05;;;5.85;;
18732;SDS011;9495;51.210;2.934;2022-07-23T00:26:42;10.70;;;5.75;;
18732;SDS011;9495;51.210;2.934;2022-07-23T00:29:10;11.60;;;5.60;;
18732;SDS011;9495;51.210;2.934;2022-07-23T00:31:38;9.05;;;5.70;;
18732;SDS011;9495;51.210;2.934;2022-07-23T00:34:07;13.10;;;6.38;;
18732;SDS011;9495;51.210;2.934;2022-07-23T00:36:36;10.68;;;6.00;;
18732;SDS011;9495;51.210;2.934;2022-07-23T00:39:04;12.80;;;6.30;;
18732;SDS011;9495;51.210;2.934;2022-07-23T00:41:32;9.95;;;6.32;;
18732;SDS011;9495;51.210;2.934;2022-07-23T00:44:21;13.15;;;6.18;;
18732;SDS011;9495;51.210;2.934;2022-07-23T00:46:51;8.18;;;6.20;;
18732;SDS011;9495;51.210;2.934;2022-07-23T00:49:21;12.68;;;6.68;;
18732;SDS011;9495;51.210;2.934;2022-07-23T00:51:50;10.32;;;5.97;;
18732;SDS011;9495;51.210;2.934;2022-07-23T00:54:18;9.30;;;6.75;;
18732;SDS011;9495;51.210;2.934;2022-07-23T00:56:47;11.55;;;6.82;;
18732;SDS011;9495;51.210;2.934;2022-07-23T00:59:16;9.77;;;6.78;;
18732;SDS011;9495;51.210;2.934;2022-07-23T01:01:45;11.27;;;6.55;;
18732;SDS011;9495;51.210;2.934;2022-07-23T01:04:15;12.07;;;7.13;;
18732;SDS011;9495;51.210;2.934;2022-07-23T01:06:45;14.35;;;7.03;;
18732;SDS011;9495;51.210;2.934;2022-07-23T01:09:13;13.52;;;7.85;;
18732;SDS011;9495;51.210;2.934;2022-07-23T01:11:42;12.65;;;7.38;;
18732;SDS011;9495;51.210;2.934;2022-07-23T01:14:11;13.40;;;7.90;;
18732;SDS011;9495;51.210;2.934;2022-07-23T01:16:41;13.02;;;7.72;;
18732;SDS011;9495;51.210;2.934;2022-07-23T01:19:11;13.70;;;7.80;;
18732;SDS011;9495;51.210;2.934;2022-07-23T01:21:41;16.70;;;7.57;;
18732;SDS011;9495;51.210;2.934;2022-07-23T01:24:12;13.38;;;7.43;;
18732;SDS011;9495;51.210;2.934;2022-07-23T01:26:42;12.73;;;8.07;;
18732;SDS011;9495;51.210;2.934;2022-07-23T01:29:12;12.68;;;8.68;;
18732;SDS011;9495;51.210;2.934;2022-07-23T01:31:40;12.52;;;7.57;;
18732;SDS011;9495;51.210;2.934;2022-07-23T01:34:10;12.38;;;8.85;;
18732;SDS011;9495;51.210;2.934;2022-07-23T01:36:39;12.43;;;8.55;;
18732;SDS011;9495;51.210;2.934;2022-07-23T01:39:08;11.73;;;8.55;;
18732;SDS011;9495;51.210;2.934;2022-07-23T01:41:38;11.82;;;8.20;;
18732;SDS011;9495;51.210;2.934;2022-07-23T01:44:08;10.23;;;8.10;;
18732;SDS011;9495;51.210;2.934;2022-07-23T01:46:37;13.30;;;8.90;;
18732;SDS011;9495;51.210;2.934;2022-07-23T01:49:06;14.20;;;8.70;;
18732;SDS011;9495;51.210;2.934;2022-07-23T01:51:34;12.73;;;9.05;;
18732;SDS011;9495;51.210;2.934;2022-07-23T01:54:03;12.98;;;9.25;;
18732;SDS011;9495;51.210;2.934;2022-07-23T01:56:31;12.18;;;9.88;;
18732;SDS011;9495;51.210;2.934;2022-07-23T01:59:01;18.35;;;9.27;;
18732;SDS011;9495;51.210;2.934;2022-07-23T02:01:30;19.00;;;10.18;;
18732;SDS011;9495;51.210;2.934;2022-07-23T02:03:58;14.63;;;10.38;;
18732;SDS011;9495;51.210;2.934;2022-07-23T02:06:26;16.25;;;10.65;;
18732;SDS011;9495;51.210;2.934;2022-07-23T02:08:55;16.95;;;10.95;;
18732;SDS011;9495;51.210;2.934;2022-07-23T02:11:23;15.68;;;10.60;;
18732;SDS011;9495;51.210;2.934;2022-07-23T02:13:52;14.63;;;9.60;;
18732;SDS011;9495;51.210;2.934;2022-07-23T02:16:21;14.02;;;10.55;;
18732;SDS011;9495;51.210;2.934;2022-07-23T02:18:50;16.00;;;10.90;;
18732;SDS011;9495;51.210;2.934;2022-07-23T02:21:19;15.85;;;10.43;;
18732;SDS011;9495;51.210;2.934;2022-07-23T02:23:47;16.42;;;10.27;;
18732;SDS011;9495;51.210;2.934;2022-07-23T02:26:15;12.90;;;10.15;;
18732;SDS011;9495;51.210;2.934;2022-07-23T02:28:46;16.15;;;10.32;;
18732;SDS011;9495;51.210;2.934;2022-07-23T02:31:14;15.82;;;10.60;;
18732;SDS011;9495;51.210;2.934;2022-07-23T02:33:44;17.80;;;10.70;;
18732;SDS011;9495;51.210;2.934;2022-07-23T02:36:13;19.27;;;11.73;;
18732;SDS011;9495;51.210;2.934;2022-07-23T02:38:41;14.93;;;10.60;;
18732;SDS011;9495;51.210;2.934;2022-07-23T02:41:09;15.55;;;10.07;;
18732;SDS011;9495;51.210;2.934;2022-07-23T02:43:38;17.98;;;10.75;;
18732;SDS011;9495;51.210;2.934;2022-07-23T02:46:06;16.35;;;11.15;;
18732;SDS011;9495;51.210;2.934;2022-07-23T02:48:35;16.00;;;10.75;;
18732;SDS011;9495;51.210;2.934;2022-07-23T02:51:05;18.55;;;11.65;;
18732;SDS011;9495;51.210;2.934;2022-07-23T02:53:40;17.58;;;10.88;;
18732;SDS011;9495;51.210;2.934;2022-07-23T02:56:08;16.33;;;11.70;;
18732;SDS011;9495;51.210;2.934;2022-07-23T02:58:37;15.07;;;11.43;;
18732;SDS011;9495;51.210;2.934;2022-07-23T03:01:05;16.98;;;11.55;;
18732;SDS011;9495;51.210;2.934;2022-07-23T03:03:34;14.98;;;10.95;;
18732;SDS011;9495;51.210;2.934;2022-07-23T03:06:02;19.95;;;11.95;;
18732;SDS011;9495;51.210;2.934;2022-07-23T03:08:32;15.60;;;11.50;;
18732;SDS011;9495;51.210;2.934;2022-07-23T03:11:00;14.68;;;11.55;;
18732;SDS011;9495;51.210;2.934;2022-07-23T03:13:29;21.00;;;11.85;;
18732;SDS011;9495;51.210;2.934;2022-07-23T03:16:01;15.50;;;10.52;;
18732;SDS011;9495;51.210;2.934;2022-07-23T03:18:29;17.70;;;11.02;;
18732;SDS011;9495;51.210;2.934;2022-07-23T03:21:07;15.40;;;10.15;;
18732;SDS011;9495;51.210;2.934;2022-07-23T03:23:35;15.07;;;10.60;;
18732;SDS011;9495;51.210;2.934;2022-07-23T03:26:03;18.73;;;11.90;;
18732;SDS011;9495;51.210;2.934;2022-07-23T03:28:32;17.42;;;11.13;;
18732;SDS011;9495;51.210;2.934;2022-07-23T03:31:00;17.15;;;11.20;;
18732;SDS011;9495;51.210;2.934;2022-07-23T03:33:29;16.45;;;10.15;;
18732;SDS011;9495;51.210;2.934;2022-07-23T03:35:57;13.52;;;10.57;;
18732;SDS011;9495;51.210;2.934;2022-07-23T03:38:27;12.55;;;10.95;;
18732;SDS011;9495;51.210;2.934;2022-07-23T03:40:55;13.98;;;10.30;;
18732;SDS011;9495;51.210;2.934;2022-07-23T03:43:24;20.40;;;11.32;;
18732;SDS011;9495;51.210;2.934;2022-07-23T03:45:52;15.32;;;10.90;;
18732;SDS011;9495;51.210;2.934;2022-07-23T03:48:21;15.80;;;10.77;;
18732;SDS011;9495;51.210;2.934;2022-07-23T03:50:49;16.83;;;11.85;;
18732;SDS011;9495;51.210;2.934;2022-07-23T03:53:17;17.70;;;11.98;;
18732;SDS011;9495;51.210;2.934;2022-07-23T03:55:47;17.77;;;13.35;;
18732;SDS011;9495;51.210;2.934;2022-07-23T03:58:16;17.20;;;13.27;;
18732;SDS011;9495;51.210;2.934;2022-07-23T04:00:44;18.90;;;13.32;;
18732;SDS011;9495;51.210;2.934;2022-07-23T04:03:12;18.30;;;13.77;;
18732;SDS011;9495;51.210;2.934;2022-07-23T04:05:41;21.08;;;13.00;;
18732;SDS011;9495;51.210;2.934;2022-07-23T04:08:09;18.02;;;12.63;;
18732;SDS011;9495;51.210;2.934;2022-07-23T04:10:38;20.73;;;12.82;;
18732;SDS011;9495;51.210;2.934;2022-07-23T04:13:07;16.90;;;13.40;;
18732;SDS011;9495;51.210;2.934;2022-07-23T04:15:36;20.48;;;13.98;;
18732;SDS011;9495;51.210;2.934;2022-07-23T04:18:05;21.05;;;14.00;;
18732;SDS011;9495;51.210;2.934;2022-07-23T04:20:34;19.77;;;14.05;;
18732;SDS011;9495;51.210;2.934;2022-07-23T04:23:06;18.60;;;13.90;;
18732;SDS011;9495;51.210;2.934;2022-07-23T04:25:36;22.02;;;14.73;;
18732;SDS011;9495;51.210;2.934;2022-07-23T04:28:04;24.92;;;14.85;;
18732;SDS011;9495;51.210;2.934;2022-07-23T04:30:34;23.10;;;14.93;;
18732;SDS011;9495;51.210;2.934;2022-07-23T04:33:02;21.92;;;15.23;;
18732;SDS011;9495;51.210;2.934;2022-07-23T04:35:33;21.05;;;15.07;;
18732;SDS011;9495;51.210;2.934;2022-07-23T04:38:02;21.50;;;15.88;;
18732;SDS011;9495;51.210;2.934;2022-07-23T04:40:31;21.58;;;15.25;;
18732;SDS011;9495;51.210;2.934;2022-07-23T04:43:00;22.15;;;15.65;;
18732;SDS011;9495;51.210;2.934;2022-07-23T04:45:28;25.65;;;17.27;;
18732;SDS011;9495;51.210;2.934;2022-07-23T04:47:58;25.38;;;17.40;;
18732;SDS011;9495;51.210;2.934;2022-07-23T04:50:27;22.83;;;17.23;;
18732;SDS011;9495;51.210;2.934;2022-07-23T04:52:55;26.23;;;17.95;;
18732;SDS011;9495;51.210;2.934;2022-07-23T04:55:24;23.13;;;17.17;;
18732;SDS011;9495;51.210;2.934;2022-07-23T04:57:52;29.48;;;17.60;;
18732;SDS011;9495;51.210;2.934;2022-07-23T05:00:20;24.65;;;17.35;;
18732;SDS011;9495;51.210;2.934;2022-07-23T05:02:49;26.00;;;17.35;;
18732;SDS011;9495;51.210;2.934;2022-07-23T05:05:19;27.63;;;17.17;;
18732;SDS011;9495;51.210;2.934;2022-07-23T05:07:48;25.08;;;18.20;;
18732;SDS011;9495;51.210;2.934;2022-07-23T05:10:16;30.80;;;19.77;;
18732;SDS011;9495;51.210;2.934;2022-07-23T05:12:45;26.02;;;18.90;;
18732;SDS011;9495;51.210;2.934;2022-07-23T05:15:13;26.20;;;18.45;;
18732;SDS011;9495;51.210;2.934;2022-07-23T05:17:42;29.98;;;18.80;;
18732;SDS011;9495;51.210;2.934;2022-07-23T05:20:10;26.58;;;17.40;;
18732;SDS011;9495;51.210;2.934;2022-07-23T05:22:41;25.17;;;17.25;;
18732;SDS011;9495;51.210;2.934;2022-07-23T05:25:09;26.63;;;18.60;;
18732;SDS011;9495;51.210;2.934;2022-07-23T05:27:37;30.05;;;18.40;;
18732;SDS011;9495;51.210;2.934;2022-07-23T05:30:06;30.65;;;17.83;;
18732;SDS011;9495;51.210;2.934;2022-07-23T05:32:35;25.60;;;16.48;;
18732;SDS011;9495;51.210;2.934;2022-07-23T05:35:04;26.05;;;17.08;;
18732;SDS011;9495;51.210;2.934;2022-07-23T05:37:34;24.17;;;16.60;;
18732;SDS011;9495;51.210;2.934;2022-07-23T05:40:05;27.17;;;17.15;;
18732;SDS011;9495;51.210;2.934;2022-07-23T05:42:35;25.98;;;15.63;;
18732;SDS011;9495;51.210;2.934;2022-07-23T05:45:03;23.92;;;16.15;;
18732;SDS011;9495;51.210;2.934;2022-07-23T05:47:38;22.88;;;16.25;;
18732;SDS011;9495;51.210;2.934;2022-07-23T05:50:08;25.85;;;16.15;;
18732;SDS011;9495;51.210;2.934;2022-07-23T05:52:37;21.48;;;15.70;;
18732;SDS011;9495;51.210;2.934;2022-07-23T05:55:07;25.15;;;16.10;;
18732;SDS011;9495;51.210;2.934;2022-07-23T05:57:37;26.70;;;16.40;;
18732;SDS011;9495;51.210;2.934;2022-07-23T06:00:06;27.67;;;16.63;;
18732;SDS011;9495;51.210;2.934;2022-07-23T06:02:36;28.70;;;17.52;;
18732;SDS011;9495;51.210;2.934;2022-07-23T06:05:05;34.05;;;17.17;;
18732;SDS011;9495;51.210;2.934;2022-07-23T06:07:35;22.60;;;14.70;;
18732;SDS011;9495;51.210;2.934;2022-07-23T06:10:04;24.55;;;15.27;;
18732;SDS011;9495;51.210;2.934;2022-07-23T06:12:35;30.05;;;15.13;;
18732;SDS011;9495;51.210;2.934;2022-07-23T06:15:03;25.05;;;14.80;;
18732;SDS011;9495;51.210;2.934;2022-07-23T06:17:36;23.77;;;14.02;;
18732;SDS011;9495;51.210;2.934;2022-07-23T06:20:06;30.02;;;14.90;;
18732;SDS011;9495;51.210;2.934;2022-07-23T06:22:35;25.65;;;15.02;;
18732;SDS011;9495;51.210;2.934;2022-07-23T06:25:04;22.10;;;15.27;;
18732;SDS011;9495;51.210;2.934;2022-07-23T06:27:44;23.83;;;14.48;;
18732;SDS011;9495;51.210;2.934;2022-07-23T06:30:13;22.00;;;14.13;;
18732;SDS011;9495;51.210;2.934;2022-07-23T06:32:43;23.48;;;15.15;;
18732;SDS011;9495;51.210;2.934;2022-07-23T06:35:12;23.10;;;15.60;;
18732;SDS011;9495;51.210;2.934;2022-07-23T06:37:40;22.65;;;14.98;;
18732;SDS011;9495;51.210;2.934;2022-07-23T06:40:11;23.58;;;15.63;;
18732;SDS011;9495;51.210;2.934;2022-07-23T06:42:40;23.42;;;15.13;;
18732;SDS011;9495;51.210;2.934;2022-07-23T06:45:08;25.00;;;15.80;;
18732;SDS011;9495;51.210;2.934;2022-07-23T06:47:37;22.70;;;15.02;;
18732;SDS011;9495;51.210;2.934;2022-07-23T06:50:06;25.77;;;15.68;;
18732;SDS011;9495;51.210;2.934;2022-07-23T06:52:35;22.42;;;14.00;;
18732;SDS011;9495;51.210;2.934;2022-07-23T06:55:08;23.73;;;14.27;;
18732;SDS011;9495;51.210;2.934;2022-07-23T06:57:38;24.95;;;15.18;;
18732;SDS011;9495;51.210;2.934;2022-07-23T07:00:06;25.40;;;15.82;;
18732;SDS011;9495;51.210;2.934;2022-07-23T07:02:35;25.50;;;15.93;;
18732;SDS011;9495;51.210;2.934;2022-07-23T07:05:04;21.63;;;15.18;;
18732;SDS011;9495;51.210;2.934;2022-07-23T07:07:33;21.92;;;14.85;;
18732;SDS011;9495;51.210;2.934;2022-07-23T07:10:02;23.10;;;15.32;;
18732;SDS011;9495;51.210;2.934;2022-07-23T07:12:31;20.27;;;15.23;;
18732;SDS011;9495;51.210;2.934;2022-07-23T07:15:01;21.88;;;15.23;;
18732;SDS011;9495;51.210;2.934;2022-07-23T07:17:29;20.27;;;14.80;;
18732;SDS011;9495;51.210;2.934;2022-07-23T07:19:57;23.20;;;13.57;;
18732;SDS011;9495;51.210;2.934;2022-07-23T07:22:26;20.13;;;13.15;;
18732;SDS011;9495;51.210;2.934;2022-07-23T07:24:54;18.80;;;12.68;;
18732;SDS011;9495;51.210;2.934;2022-07-23T07:27:23;18.55;;;13.00;;
18732;SDS011;9495;51.210;2.934;2022-07-23T07:29:51;18.95;;;12.68;;
18732;SDS011;9495;51.210;2.934;2022-07-23T07:32:21;19.75;;;13.25;;
18732;SDS011;9495;51.210;2.934;2022-07-23T07:35:09;21.40;;;12.88;;
18732;SDS011;9495;51.210;2.934;2022-07-23T07:37:38;18.20;;;12.07;;
18732;SDS011;9495;51.210;2.934;2022-07-23T07:40:07;17.50;;;11.10;;
18732;SDS011;9495;51.210;2.934;2022-07-23T07:42:43;15.73;;;11.57;;
18732;SDS011;9495;51.210;2.934;2022-07-23T07:45:12;14.80;;;11.77;;
18732;SDS011;9495;51.210;2.934;2022-07-23T07:47:42;17.17;;;12.63;;
18732;SDS011;9495;51.210;2.934;2022-07-23T07:50:11;22.48;;;13.27;;
18732;SDS011;9495;51.210;2.934;2022-07-23T07:52:39;17.58;;;12.10;;
18732;SDS011;9495;51.210;2.934;2022-07-23T07:55:09;18.23;;;12.73;;
18732;SDS011;9495;51.210;2.934;2022-07-23T07:57:38;18.58;;;12.30;;
18732;SDS011;9495;51.210;2.934;2022-07-23T08:00:14;18.77;;;12.48;;
18732;SDS011;9495;51.210;2.934;2022-07-23T08:02:45;16.83;;;12.18;;
18732;SDS011;9495;51.210;2.934;2022-07-23T08:05:18;15.55;;;11.60;;
18732;SDS011;9495;51.210;2.934;2022-07-23T08:07:53;17.42;;;11.90;;
18732;SDS011;9495;51.210;2.934;2022-07-23T08:10:22;19.95;;;12.60;;
18732;SDS011;9495;51.210;2.934;2022-07-23T08:12:52;19.20;;;12.60;;
18732;SDS011;9495;51.210;2.934;2022-07-23T08:15:23;16.90;;;12.95;;
18732;SDS011;9495;51.210;2.934;2022-07-23T08:17:54;15.45;;;12.15;;
18732;SDS011;9495;51.210;2.934;2022-07-23T08:20:23;16.90;;;12.95;;
18732;SDS011;9495;51.210;2.934;2022-07-23T08:22:55;18.85;;;12.35;;
18732;SDS011;9495;51.210;2.934;2022-07-23T08:25:24;19.27;;;13.57;;
18732;SDS011;9495;51.210;2.934;2022-07-23T08:27:55;20.23;;;13.23;;
18732;SDS011;9495;51.210;2.934;2022-07-23T08:30:24;17.88;;;12.98;;
18732;SDS011;9495;51.210;2.934;2022-07-23T08:32:56;20.75;;;12.73;;
18732;SDS011;9495;51.210;2.934;2022-07-23T08:35:27;19.27;;;13.50;;
18732;SDS011;9495;51.210;2.934;2022-07-23T08:37:58;20.70;;;13.70;;
18732;SDS011;9495;51.210;2.934;2022-07-23T08:40:29;19.23;;;14.30;;
18732;SDS011;9495;51.210;2.934;2022-07-23T08:42:58;19.48;;;13.77;;
18732;SDS011;9495;51.210;2.934;2022-07-23T08:45:27;18.88;;;12.52;;
18732;SDS011;9495;51.210;2.934;2022-07-23T08:47:57;21.10;;;13.18;;
18732;SDS011;9495;51.210;2.934;2022-07-23T08:50:31;23.75;;;14.48;;
18732;SDS011;9495;51.210;2.934;2022-07-23T08:53:02;18.17;;;13.52;;
18732;SDS011;9495;51.210;2.934;2022-07-23T08:55:33;20.42;;;13.85;;
18732;SDS011;9495;51.210;2.934;2022-07-23T08:58:02;19.80;;;14.30;;
18732;SDS011;9495;51.210;2.934;2022-07-23T09:00:31;19.85;;;14.68;;
18732;SDS011;9495;51.210;2.934;2022-07-23T09:03:00;22.10;;;14.63;;
18732;SDS011;9495;51.210;2.934;2022-07-23T09:05:29;18.52;;;15.05;;
18732;SDS011;9495;51.210;2.934;2022-07-23T09:08:07;23.67;;;15.45;;
18732;SDS011;9495;51.210;2.934;2022-07-23T09:10:47;21.48;;;14.80;;
18732;SDS011;9495;51.210;2.934;2022-07-23T09:13:24;24.08;;;13.35;;
18732;SDS011;9495;51.210;2.934;2022-07-23T09:15:55;19.25;;;13.48;;
18732;SDS011;9495;51.210;2.934;2022-07-23T09:21:11;18.15;;;13.38;;
18732;SDS011;9495;51.210;2.934;2022-07-23T09:23:48;22.60;;;14.23;;
18732;SDS011;9495;51.210;2.934;2022-07-23T09:29:08;20.05;;;14.25;;
18732;SDS011;9495;51.210;2.934;2022-07-23T09:31:46;20.20;;;13.63;;
18732;SDS011;9495;51.210;2.934;2022-07-23T09:34:19;25.45;;;15.18;;
18732;SDS011;9495;51.210;2.934;2022-07-23T09:36:50;19.42;;;14.98;;
18732;SDS011;9495;51.210;2.934;2022-07-23T09:39:25;19.83;;;14.82;;
18732;SDS011;9495;51.210;2.934;2022-07-23T09:41:55;19.55;;;15.50;;
18732;SDS011;9495;51.210;2.934;2022-07-23T09:44:24;23.67;;;14.73;;
18732;SDS011;9495;51.210;2.934;2022-07-23T09:46:57;23.45;;;15.25;;
18732;SDS011;9495;51.210;2.934;2022-07-23T09:49:28;22.90;;;15.20;;
18732;SDS011;9495;51.210;2.934;2022-07-23T09:52:00;24.77;;;15.88;;
18732;SDS011;9495;51.210;2.934;2022-07-23T09:54:30;19.92;;;14.50;;
18732;SDS011;9495;51.210;2.934;2022-07-23T09:57:02;19.40;;;14.85;;
18732;SDS011;9495;51.210;2.934;2022-07-23T09:59:34;23.88;;;16.30;;
18732;SDS011;9495;51.210;2.934;2022-07-23T10:02:05;19.58;;;15.13;;
18732;SDS011;9495;51.210;2.934;2022-07-23T10:04:35;24.15;;;15.20;;
18732;SDS011;9495;51.210;2.934;2022-07-23T10:07:04;22.70;;;16.52;;
18732;SDS011;9495;51.210;2.934;2022-07-23T10:09:37;22.38;;;14.88;;
18732;SDS011;9495;51.210;2.934;2022-07-23T10:12:09;21.40;;;15.25;;
18732;SDS011;9495;51.210;2.934;2022-07-23T10:14:52;27.00;;;16.33;;
18732;SDS011;9495;51.210;2.934;2022-07-23T10:17:20;27.92;;;17.90;;
18732;SDS011;9495;51.210;2.934;2022-07-23T10:19:50;25.20;;;16.20;;
18732;SDS011;9495;51.210;2.934;2022-07-23T10:22:19;23.42;;;15.98;;
18732;SDS011;9495;51.210;2.934;2022-07-23T10:24:54;20.77;;;15.48;;
18732;SDS011;9495;51.210;2.934;2022-07-23T10:27:54;27.38;;;16.63;;
18732;SDS011;9495;51.210;2.934;2022-07-23T10:30:36;23.38;;;18.40;;
18732;SDS011;9495;51.210;2.934;2022-07-23T10:33:26;24.92;;;17.48;;
18732;SDS011;9495;51.210;2.934;2022-07-23T10:36:04;23.10;;;17.60;;
18732;SDS011;9495;51.210;2.934;2022-07-23T10:38:43;23.08;;;17.35;;
18732;SDS011;9495;51.210;2.934;2022-07-23T10:41:30;24.80;;;17.02;;
18732;SDS011;9495;51.210;2.934;2022-07-23T10:44:05;26.10;;;17.40;;
18732;SDS011;9495;51.210;2.934;2022-07-23T10:46:35;26.85;;;19.00;;
18732;SDS011;9495;51.210;2.934;2022-07-23T10:49:21;29.17;;;21.08;;
18732;SDS011;9495;51.210;2.934;2022-07-23T10:54:52;22.20;;;17.48;;
18732;SDS011;9495;51.210;2.934;2022-07-23T10:57:22;25.40;;;18.80;;
18732;SDS011;9495;51.210;2.934;2022-07-23T11:02:44;26.10;;;18.17;;
18732;SDS011;9495;51.210;2.934;2022-07-23T11:05:14;26.20;;;18.75;;
18732;SDS011;9495;51.210;2.934;2022-07-23T11:10:43;24.85;;;18.02;;
18732;SDS011;9495;51.210;2.934;2022-07-23T11:13:25;26.83;;;19.52;;
18732;SDS011;9495;51.210;2.934;2022-07-23T11:16:05;28.52;;;20.55;;
18732;SDS011;9495;51.210;2.934;2022-07-23T11:21:40;24.85;;;18.33;;
18732;SDS011;9495;51.210;2.934;2022-07-23T11:24:11;29.10;;;20.38;;
18732;SDS011;9495;51.210;2.934;2022-07-23T11:26:43;28.20;;;19.52;;
18732;SDS011;9495;51.210;2.934;2022-07-23T11:37:54;22.83;;;17.95;;
18732;SDS011;9495;51.210;2.934;2022-07-23T11:40:33;27.58;;;18.92;;
18732;SDS011;9495;51.210;2.934;2022-07-23T11:43:02;30.60;;;19.70;;
18732;SDS011;9495;51.210;2.934;2022-07-23T11:45:33;29.55;;;20.65;;
18732;SDS011;9495;51.210;2.934;2022-07-23T11:48:03;32.17;;;20.20;;
18732;SDS011;9495;51.210;2.934;2022-07-23T11:50:32;74.40;;;23.15;;
18732;SDS011;9495;51.210;2.934;2022-07-23T11:53:01;34.85;;;20.25;;
18732;SDS011;9495;51.210;2.934;2022-07-23T11:55:30;30.08;;;21.17;;
18732;SDS011;9495;51.210;2.934;2022-07-23T11:58:00;27.35;;;18.40;;
18732;SDS011;9495;51.210;2.934;2022-07-23T12:00:29;29.80;;;22.08;;
18732;SDS011;9495;51.210;2.934;2022-07-23T12:03:06;30.15;;;22.73;;
18732;SDS011;9495;51.210;2.934;2022-07-23T12:05:35;30.17;;;22.02;;
18732;SDS011;9495;51.210;2.934;2022-07-23T12:08:05;31.92;;;21.20;;
18732;SDS011;9495;51.210;2.934;2022-07-23T12:10:36;29.45;;;21.52;;
18732;SDS011;9495;51.210;2.934;2022-07-23T12:13:07;65.25;;;25.02;;
18732;SDS011;9495;51.210;2.934;2022-07-23T12:15:37;57.25;;;23.85;;
18732;SDS011;9495;51.210;2.934;2022-07-23T12:18:07;33.45;;;23.33;;
18732;SDS011;9495;51.210;2.934;2022-07-23T12:20:37;30.48;;;21.83;;
18732;SDS011;9495;51.210;2.934;2022-07-23T12:23:07;27.90;;;20.63;;
18732;SDS011;9495;51.210;2.934;2022-07-23T12:25:37;28.23;;;19.60;;
18732;SDS011;9495;51.210;2.934;2022-07-23T12:28:09;28.25;;;19.92;;
18732;SDS011;9495;51.210;2.934;2022-07-23T12:30:39;24.67;;;18.63;;
18732;SDS011;9495;51.210;2.934;2022-07-23T12:33:09;30.00;;;20.95;;
18732;SDS011;9495;51.210;2.934;2022-07-23T12:35:39;29.98;;;23.40;;
18732;SDS011;9495;51.210;2.934;2022-07-23T12:38:08;29.60;;;21.58;;
18732;SDS011;9495;51.210;2.934;2022-07-23T12:40:41;29.10;;;21.10;;
18732;SDS011;9495;51.210;2.934;2022-07-23T12:43:18;27.50;;;22.50;;
18732;SDS011;9495;51.210;2.934;2022-07-23T12:45:48;35.85;;;21.85;;
18732;SDS011;9495;51.210;2.934;2022-07-23T12:48:21;29.00;;;20.55;;
18732;SDS011;9495;51.210;2.934;2022-07-23T12:50:58;28.98;;;21.77;;
18732;SDS011;9495;51.210;2.934;2022-07-23T12:53:28;30.33;;;22.65;;
18732;SDS011;9495;51.210;2.934;2022-07-23T12:55:59;31.77;;;23.27;;
18732;SDS011;9495;51.210;2.934;2022-07-23T12:58:43;28.20;;;20.90;;
18732;SDS011;9495;51.210;2.934;2022-07-23T13:01:24;33.53;;;23.63;;
18732;SDS011;9495;51.210;2.934;2022-07-23T13:03:57;31.13;;;22.27;;
18732;SDS011;9495;51.210;2.934;2022-07-23T13:06:27;32.97;;;22.45;;
18732;SDS011;9495;51.210;2.934;2022-07-23T13:08:56;30.45;;;21.33;;
18732;SDS011;9495;51.210;2.934;2022-07-23T13:11:27;31.77;;;23.25;;
18732;SDS011;9495;51.210;2.934;2022-07-23T13:13:57;30.15;;;21.48;;
18732;SDS011;9495;51.210;2.934;2022-07-23T13:16:27;35.38;;;23.10;;
18732;SDS011;9495;51.210;2.934;2022-07-23T13:18:56;36.47;;;27.08;;
18732;SDS011;9495;51.210;2.934;2022-07-23T13:21:25;35.60;;;23.13;;
18732;SDS011;9495;51.210;2.934;2022-07-23T13:23:54;32.55;;;23.63;;
18732;SDS011;9495;51.210;2.934;2022-07-23T13:26:23;36.88;;;26.25;;
18732;SDS011;9495;51.210;2.934;2022-07-23T13:28:52;32.05;;;23.90;;
18732;SDS011;9495;51.210;2.934;2022-07-23T13:31:22;33.40;;;24.55;;
18732;SDS011;9495;51.210;2.934;2022-07-23T13:33:51;32.75;;;25.05;;
18732;SDS011;9495;51.210;2.934;2022-07-23T13:36:19;33.47;;;25.27;;
18732;SDS011;9495;51.210;2.934;2022-07-23T13:38:48;36.17;;;24.85;;
18732;SDS011;9495;51.210;2.934;2022-07-23T13:41:17;36.10;;;25.83;;
18732;SDS011;9495;51.210;2.934;2022-07-23T13:43:45;36.45;;;26.48;;
18732;SDS011;9495;51.210;2.934;2022-07-23T13:46:14;34.97;;;27.75;;
18732;SDS011;9495;51.210;2.934;2022-07-23T13:48:47;34.47;;;26.70;;
18732;SDS011;9495;51.210;2.934;2022-07-23T13:51:15;39.80;;;28.40;;
18732;SDS011;9495;51.210;2.934;2022-07-23T13:53:45;37.05;;;26.25;;
18732;SDS011;9495;51.210;2.934;2022-07-23T13:56:16;33.60;;;23.83;;
18732;SDS011;9495;51.210;2.934;2022-07-23T13:58:44;37.20;;;26.95;;
18732;SDS011;9495;51.210;2.934;2022-07-23T14:01:14;38.53;;;28.02;;
18732;SDS011;9495;51.210;2.934;2022-07-23T14:03:43;33.67;;;27.35;;
18732;SDS011;9495;51.210;2.934;2022-07-23T14:06:19;36.33;;;25.42;;
18732;SDS011;9495;51.210;2.934;2022-07-23T14:08:58;36.75;;;23.75;;
18732;SDS011;9495;51.210;2.934;2022-07-23T14:11:27;40.75;;;27.30;;
18732;SDS011;9495;51.210;2.934;2022-07-23T14:13:57;38.65;;;25.45;;
18732;SDS011;9495;51.210;2.934;2022-07-23T14:16:27;34.58;;;24.45;;
18732;SDS011;9495;51.210;2.934;2022-07-23T14:18:57;34.75;;;23.80;;
18732;SDS011;9495;51.210;2.934;2022-07-23T14:21:27;32.10;;;24.00;;
18732;SDS011;9495;51.210;2.934;2022-07-23T14:23:55;34.72;;;24.65;;
18732;SDS011;9495;51.210;2.934;2022-07-23T14:26:24;31.45;;;23.73;;
18732;SDS011;9495;51.210;2.934;2022-07-23T14:28:52;31.40;;;24.23;;
18732;SDS011;9495;51.210;2.934;2022-07-23T14:31:21;34.67;;;25.25;;
18732;SDS011;9495;51.210;2.934;2022-07-23T14:33:49;30.05;;;25.10;;
18732;SDS011;9495;51.210;2.934;2022-07-23T14:36:21;35.58;;;25.30;;
18732;SDS011;9495;51.210;2.934;2022-07-23T14:38:49;39.13;;;28.73;;
18732;SDS011;9495;51.210;2.934;2022-07-23T14:41:18;33.17;;;25.95;;
18732;SDS011;9495;51.210;2.934;2022-07-23T14:43:52;34.13;;;26.90;;
18732;SDS011;9495;51.210;2.934;2022-07-23T14:46:21;36.97;;;29.02;;
18732;SDS011;9495;51.210;2.934;2022-07-23T14:48:49;35.67;;;24.23;;
18732;SDS011;9495;51.210;2.934;2022-07-23T14:51:18;33.25;;;25.17;;
18732;SDS011;9495;51.210;2.934;2022-07-23T14:53:48;34.85;;;25.92;;
18732;SDS011;9495;51.210;2.934;2022-07-23T14:56:16;32.22;;;25.20;;
18732;SDS011;9495;51.210;2.934;2022-07-23T14:58:45;33.15;;;22.88;;
18732;SDS011;9495;51.210;2.934;2022-07-23T15:01:13;32.70;;;25.23;;
18732;SDS011;9495;51.210;2.934;2022-07-23T15:03:42;32.85;;;24.67;;
18732;SDS011;9495;51.210;2.934;2022-07-23T15:06:11;35.28;;;25.88;;
18732;SDS011;9495;51.210;2.934;2022-07-23T15:08:39;29.20;;;21.13;;
18732;SDS011;9495;51.210;2.934;2022-07-23T15:11:09;33.33;;;25.98;;
18732;SDS011;9495;51.210;2.934;2022-07-23T15:13:38;34.05;;;22.35;;
18732;SDS011;9495;51.210;2.934;2022-07-23T15:16:07;35.13;;;24.67;;
18732;SDS011;9495;51.210;2.934;2022-07-23T15:18:36;32.78;;;23.23;;
18732;SDS011;9495;51.210;2.934;2022-07-23T15:21:05;33.78;;;22.23;;